Time;durP1;ratioP1;P1;durP2;ratioP2;P2;SDS_P1;SDS_P2;PMS_P1;PMS_P2;Temp;Humidity;BMP_temperature;BMP_pressure;BME280_temperature;BME280_humidity;BME280_pressure;Samples;Min_cycle;Max_cycle;Signal;HPM_P1;HPM_P2
2024/01/22 00:00:27;;;;;;;15.52;10.65;;;;;;;5.13;100.00;101018.88;10197645;28;20081;-68
2024/01/22 00:05:24;;;;;;;16.73;11.25;;;;;;;5.13;100.00;100991.75;10195946;28;20045;-69
2024/01/22 00:10:20;;;;;;;17.00;12.23;;;;;;;4.84;100.00;100931.91;10197227;28;20046;-69
2024/01/22 00:15:17;;;;;;;13.57;12.18;;;;;;;4.62;100.00;100888.91;10191880;28;20046;-70
2024/01/22 00:20:13;;;;;;;13.13;11.88;;;;;;;4.53;100.00;100836.38;10196941;28;20050;-70
2024/01/22 00:25:10;;;;;;;14.18;12.70;;;;;;;4.42;100.00;100858.06;10191853;28;20077;-68
2024/01/22 00:30:07;;;;;;;14.20;12.68;;;;;;;4.31;100.00;100840.19;10197735;28;20038;-68
2024/01/22 00:35:04;;;;;;;14.57;12.23;;;;;;;4.26;100.00;100804.22;10195613;28;20129;-67
2024/01/22 00:40:01;;;;;;;20.33;13.40;;;;;;;4.19;100.00;100778.22;10197611;28;20057;-70
2024/01/22 00:44:57;;;;;;;14.75;12.82;;;;;;;4.15;100.00;100727.63;10185321;28;20061;-67
2024/01/22 00:49:54;;;;;;;16.17;13.43;;;;;;;4.14;100.00;100701.66;10194803;28;20038;-68
2024/01/22 00:54:50;;;;;;;13.85;12.27;;;;;;;4.16;100.00;100685.97;10197926;28;20517;-70
2024/01/22 00:59:47;;;;;;;16.20;12.63;;;;;;;4.12;100.00;100690.31;10195525;28;20097;-69
2024/01/22 01:04:43;;;;;;;15.95;12.98;;;;;;;4.24;100.00;100652.91;10209785;28;20140;-69
2024/01/22 01:09:40;;;;;;;13.63;11.93;;;;;;;4.36;100.00;100631.78;10195041;28;20557;-68
2024/01/22 01:14:37;;;;;;;15.00;11.70;;;;;;;4.46;100.00;100668.00;10193773;28;20042;-69
2024/01/22 01:19:33;;;;;;;13.00;10.45;;;;;;;4.52;100.00;100645.22;10196009;28;20049;-71
2024/01/22 01:24:30;;;;;;;14.55;11.48;;;;;;;4.63;100.00;100619.69;10193490;28;20133;-70
2024/01/22 01:29:26;;;;;;;12.70;9.68;;;;;;;4.73;100.00;100561.94;10194652;28;20042;-71
2024/01/22 01:34:23;;;;;;;13.32;9.88;;;;;;;4.80;100.00;100576.78;10180116;28;20041;-70
2024/01/22 01:39:19;;;;;;;15.73;10.73;;;;;;;4.87;100.00;100581.88;10191404;28;20049;-69
2024/01/22 01:44:16;;;;;;;11.07;9.88;;;;;;;4.95;100.00;100594.81;10192669;28;20034;-71
2024/01/22 01:49:12;;;;;;;11.40;9.98;;;;;;;4.99;100.00;100559.81;10182131;28;20046;-69
2024/01/22 01:54:09;;;;;;;11.23;10.07;;;;;;;5.04;100.00;100538.94;10191603;28;20053;-67
2024/01/22 01:59:06;;;;;;;13.30;9.95;;;;;;;4.98;100.00;100545.47;10193142;28;20057;-69
2024/01/22 02:09:11;;;;;;;12.52;11.32;;;;;;;4.76;100.00;100499.09;10141755;28;20092;-76
2024/01/22 02:14:12;;;;;;;13.20;11.85;;;;;;;4.84;100.00;100544.50;10171423;28;20042;-76
2024/01/22 02:19:13;;;;;;;16.27;12.15;;;;;;;4.81;100.00;100539.69;10175534;23;21085;-72
2024/01/22 02:24:10;;;;;;;13.98;12.10;;;;;;;4.81;100.00;100524.22;10216742;28;20076;-71
2024/01/22 02:29:07;;;;;;;12.27;11.10;;;;;;;4.89;100.00;100513.88;10186024;28;20058;-74
2024/01/22 02:34:03;;;;;;;13.88;12.43;;;;;;;4.96;100.00;100476.41;10189100;28;20515;-73
2024/01/22 02:39:00;;;;;;;13.23;11.48;;;;;;;5.01;100.00;100469.06;10188948;28;20056;-73
2024/01/22 02:43:56;;;;;;;11.98;10.77;;;;;;;5.15;100.00;100493.56;10182055;28;20046;-72
2024/01/22 02:48:53;;;;;;;14.65;10.10;;;;;;;5.24;100.00;100493.72;10181425;28;20513;-72
2024/01/22 02:53:50;;;;;;;11.75;10.75;;;;;;;5.27;100.00;100476.91;10179465;28;20088;-73
2024/01/22 02:58:47;;;;;;;15.13;10.70;;;;;;;5.40;100.00;100459.13;10184899;28;20043;-70
2024/01/22 03:03:43;;;;;;;11.55;10.38;;;;;;;5.44;100.00;100454.75;10183781;28;20065;-73
2024/01/22 03:08:40;;;;;;;11.50;9.88;;;;;;;5.52;100.00;100469.56;10187059;28;20141;-72
2024/01/22 03:13:37;;;;;;;12.27;10.80;;;;;;;5.57;100.00;100431.53;10188024;28;20046;-73
2024/01/22 03:18:33;;;;;;;11.40;10.35;;;;;;;5.58;100.00;100412.25;10189530;28;20069;-71
2024/01/22 03:23:30;;;;;;;11.43;10.23;;;;;;;5.60;100.00;100388.38;10198439;28;20049;-71
2024/01/22 03:28:27;;;;;;;11.05;9.95;;;;;;;5.62;100.00;100396.22;10190416;28;20064;-72
2024/01/22 03:33:23;;;;;;;10.38;9.38;;;;;;;5.62;100.00;100385.38;10190073;28;20081;-71
2024/01/22 03:38:20;;;;;;;11.40;9.75;;;;;;;5.69;100.00;100385.81;10183015;28;20046;-73
2024/01/22 03:43:17;;;;;;;11.15;10.05;;;;;;;5.72;100.00;100371.66;10185267;28;20044;-73
2024/01/22 03:48:13;;;;;;;11.07;8.82;;;;;;;5.80;100.00;100362.03;10187831;28;20053;-73
2024/01/22 03:53:10;;;;;;;10.15;9.15;;;;;;;5.83;100.00;100331.63;10165760;28;20050;-73
2024/01/22 03:58:07;;;;;;;11.90;9.93;;;;;;;5.84;100.00;100316.94;10185541;28;20049;-74
2024/01/22 04:03:04;;;;;;;10.70;9.80;;;;;;;5.84;100.00;100306.09;10179788;28;20046;-71
2024/01/22 04:08:00;;;;;;;12.80;10.27;;;;;;;5.62;100.00;100298.59;10183061;28;20563;-73
2024/01/22 04:12:57;;;;;;;14.55;10.30;;;;;;;5.50;100.00;100293.59;10178465;28;20045;-72
2024/01/22 04:17:53;;;;;;;11.65;10.75;;;;;;;5.39;100.00;100284.81;10187182;28;20038;-72
2024/01/22 04:22:53;;;;;;;10.82;9.88;;;;;;;5.38;100.00;100276.97;10181703;28;20061;-72
2024/01/22 04:27:49;;;;;;;12.20;11.02;;;;;;;5.39;100.00;100227.88;10161748;28;20050;-71
2024/01/22 04:32:46;;;;;;;13.35;11.93;;;;;;;5.31;100.00;100231.25;10183304;28;20539;-73
2024/01/22 04:37:43;;;;;;;13.65;12.45;;;;;;;5.35;100.00;100196.22;10179612;28;20536;-79
2024/01/22 04:42:41;;;;;;;12.45;11.35;;;;;;;5.40;100.00;100174.44;10186252;28;20054;-76
2024/01/22 04:47:37;;;;;;;11.70;10.63;;;;;;;5.40;100.00;100139.19;10184251;28;20038;-74
2024/01/22 04:52:34;;;;;;;14.80;11.23;;;;;;;5.44;100.00;100119.34;10173232;28;20615;-75
2024/01/22 04:57:30;;;;;;;10.75;9.85;;;;;;;5.37;100.00;100139.81;10179065;28;20092;-75
2024/01/22 05:02:27;;;;;;;11.55;10.55;;;;;;;5.36;100.00;100149.03;10167685;28;20449;-74
2024/01/22 05:07:24;;;;;;;11.30;10.10;;;;;;;5.46;100.00;100133.41;10175978;28;20765;-75
2024/01/22 05:12:21;;;;;;;12.32;11.23;;;;;;;5.40;100.00;100102.03;10177850;28;20049;-74
2024/01/22 05:17:17;;;;;;;12.25;11.35;;;;;;;5.42;100.00;100074.66;10184670;28;20500;-75
2024/01/22 05:22:14;;;;;;;12.65;11.40;;;;;;;5.49;100.00;100085.91;10184037;28;20042;-75
2024/01/22 05:27:10;;;;;;;11.82;10.90;;;;;;;5.51;100.00;100040.31;10184002;28;20405;-74
2024/01/22 05:32:07;;;;;;;11.70;10.50;;;;;;;5.58;100.00;100054.28;10181619;28;20448;-74
2024/01/22 05:37:03;;;;;;;12.20;11.00;;;;;;;5.68;100.00;100042.41;10179115;28;20112;-75
2024/01/22 05:42:00;;;;;;;13.05;11.85;;;;;;;5.84;100.00;100034.78;10177489;28;20053;-75
2024/01/22 05:46:56;;;;;;;12.43;11.40;;;;;;;5.84;100.00;100018.50;10179758;28;20057;-75
2024/01/22 05:51:53;;;;;;;12.68;11.52;;;;;;;5.91;100.00;100014.25;10179824;28;20037;-75
2024/01/22 05:56:50;;;;;;;11.32;10.45;;;;;;;6.02;100.00;100004.03;10192066;28;20052;-75
2024/01/22 06:01:47;;;;;;;10.57;9.60;;;;;;;6.25;100.00;100001.38;10187217;28;20077;-75
2024/01/22 06:06:43;;;;;;;12.32;11.23;;;;;;;6.35;100.00;99995.72;10188489;28;20054;-76
2024/01/22 06:11:40;;;;;;;12.32;10.27;;;;;;;-146.18;100.00;67994.34;10179422;28;20052;-76
2024/01/22 06:16:37;;;;;;;11.02;10.25;;;;;;;-146.18;100.00;67994.34;10189780;28;20050;-75
2024/01/22 06:21:33;;;;;;;11.38;10.35;;;;;;;-146.18;100.00;67994.34;10202839;28;20104;-75
2024/01/22 06:26:30;;;;;;;11.57;10.57;;;;;;;-146.18;100.00;67994.34;10192509;28;20046;-75
2024/01/22 06:31:28;;;;;;;11.30;10.32;;;;;;;-146.18;100.00;67994.34;10176932;28;20471;-75
2024/01/22 06:36:28;;;;;;;10.82;10.05;;;;;;;-146.18;100.00;67994.34;10189282;28;20045;-77
2024/01/22 06:41:25;;;;;;;12.00;10.98;;;;;;;-146.18;100.00;67994.34;10186316;28;20065;-76
2024/01/22 06:46:22;;;;;;;11.88;11.07;;;;;;;-146.18;100.00;67994.34;10185471;28;20497;-75
2024/01/22 06:56:57;;;;;;;11.43;10.63;;;;;;;7.66;100.00;99948.28;10274423;27;21016;-74
2024/01/22 07:01:54;;;;;;;12.00;11.20;;;;;;;7.83;100.00;99965.75;10239669;28;20041;-74
2024/01/22 07:06:51;;;;;;;10.95;10.25;;;;;;;8.11;100.00;99977.16;10256110;28;20512;-77
2024/01/22 07:11:49;;;;;;;10.85;10.15;;;;;;;8.31;100.00;99981.16;10254716;28;20523;-75
2024/01/22 07:16:46;;;;;;;10.77;10.10;;;;;;;8.27;100.00;99974.75;10249399;28;20042;-74
2024/01/22 07:21:46;;;;;;;11.25;10.25;;;;;;;8.52;100.00;99998.50;10262452;28;20053;-74
2024/01/22 07:26:43;;;;;;;19.92;10.52;;;;;;;8.41;100.00;99948.19;10252838;28;20045;-74
2024/01/22 07:31:39;;;;;;;10.77;10.07;;;;;;;8.52;100.00;99998.50;10242776;28;20148;-75
2024/01/22 07:36:36;;;;;;;9.68;9.07;;;;;;;8.68;100.00;99984.38;10212645;28;20092;-75
2024/01/22 07:41:32;;;;;;;9.32;8.73;;;;;;;8.74;100.00;100013.06;10241562;28;20191;-75
2024/01/22 07:46:29;;;;;;;10.77;9.88;;;;;;;8.70;100.00;100014.81;10261811;28;20118;-75
2024/01/22 07:51:26;;;;;;;9.93;9.32;;;;;;;8.77;100.00;100004.25;10258422;28;20041;-74
2024/01/22 07:56:23;;;;;;;10.65;9.88;;;;;;;8.56;100.00;99966.78;10243478;28;20132;-75
2024/01/22 08:01:19;;;;;;;11.68;10.98;;;;;;;8.43;100.00;99967.75;10222710;28;20054;-74
2024/01/22 08:06:16;;;;;;;12.38;11.57;;;;;;;8.40;100.00;99957.47;10213919;28;20049;-74
2024/01/22 08:11:13;;;;;;;11.30;10.60;;;;;;;8.51;100.00;99950.56;10202628;28;20135;-74
2024/01/22 08:16:09;;;;;;;11.20;10.35;;;;;;;8.46;100.00;99948.00;10198183;28;20132;-75
2024/01/22 08:21:06;;;;;;;11.48;10.52;;;;;;;8.43;100.00;99959.56;10231880;28;20768;-74
2024/01/22 08:26:02;;;;;;;11.35;10.65;;;;;;;8.37;100.00;99930.84;10229055;28;20060;-75
2024/01/22 08:30:59;;;;;;;10.85;10.15;;;;;;;8.25;100.00;99890.66;10231696;28;20057;-76
2024/01/22 08:35:56;;;;;;;11.43;10.50;;;;;;;8.23;100.00;99904.56;10233781;28;20037;-75
2024/01/22 08:40:52;;;;;;;10.40;9.70;;;;;;;8.29;100.00;99874.47;10226899;28;20084;-80
2024/01/22 08:45:49;;;;;;;10.95;10.25;;;;;;;8.34;100.00;99860.69;10219814;28;20041;-75
2024/01/22 08:50:46;;;;;;;11.65;10.85;;;;;;;8.43;100.00;99883.28;10224557;28;20053;-74
2024/01/22 08:55:43;;;;;;;10.88;9.98;;;;;;;8.58;100.00;99880.03;10222045;28;20041;-78
2024/01/22 09:00:39;;;;;;;12.48;11.68;;;;;;;8.59;100.00;99899.94;10232570;28;20144;-75
2024/01/22 09:05:36;;;;;;;11.88;11.10;;;;;;;8.61;100.00;99906.66;10228214;28;20048;-75
2024/01/22 09:10:32;;;;;;;12.90;12.00;;;;;;;8.56;100.00;99900.56;10215546;28;20069;-74
2024/01/22 09:15:29;;;;;;;13.90;13.00;;;;;;;8.61;100.00;99893.03;10215680;28;20705;-75
2024/01/22 09:20:25;;;;;;;13.63;12.52;;;;;;;8.57;100.00;99892.06;10226372;28;20049;-75
2024/01/22 09:25:22;;;;;;;13.35;12.13;;;;;;;8.66;100.00;99905.69;10218000;28;20155;-75
2024/01/22 09:30:19;;;;;;;12.82;11.90;;;;;;;8.81;100.00;99912.53;10226767;28;20497;-75
2024/01/22 09:35:16;;;;;;;12.90;12.00;;;;;;;8.91;100.00;99906.72;10224892;28;20053;-75
2024/01/22 09:40:13;;;;;;;13.27;12.27;;;;;;;8.99;100.00;99935.88;10230128;28;20476;-74
2024/01/22 09:45:20;;;;;;;13.02;11.77;;;;;;;9.18;100.00;99912.88;10191384;28;20044;-75
2024/01/22 09:50:17;;;;;;;13.75;10.90;;;;;;;9.30;100.00;99918.41;10184592;28;20132;-75
2024/01/22 09:55:13;;;;;;;12.05;11.05;;;;;;;9.21;100.00;99915.75;10183793;28;20038;-75
2024/01/22 10:00:14;;;;;;;12.73;11.80;;;;;;;8.99;100.00;99935.09;10195106;28;20053;-75
2024/01/22 10:05:11;;;;;;;11.35;10.55;;;;;;;8.92;100.00;99951.94;10190431;28;20424;-75
2024/01/22 10:10:08;;;;;;;11.88;11.07;;;;;;;8.82;100.00;99941.41;10224912;28;20543;-75
2024/01/22 10:15:11;;;;;;;13.32;10.15;;;;;;;8.71;100.00;99912.88;10213448;28;20068;-74
2024/01/22 10:20:08;;;;;;;11.60;10.55;;;;;;;8.68;100.00;99880.81;10224635;28;20125;-74
2024/01/22 10:25:05;;;;;;;10.20;9.35;;;;;;;8.72;100.00;99881.75;10225501;28;20045;-74
2024/01/22 10:30:10;;;;;;;10.07;9.18;;;;;;;8.76;100.00;99855.47;10222002;28;20087;-72
2024/01/22 10:35:25;;;;;;;10.25;9.38;;;;;;;8.80;100.00;99900.03;10219521;28;20456;-74
2024/01/22 10:40:29;;;;;;;11.88;8.88;;;;;;;8.45;100.00;99984.56;10221419;28;20649;-74
2024/01/22 10:45:31;;;;;;;16.02;11.15;;;;;;;7.89;100.00;99926.34;10226356;28;20049;-75
2024/01/22 10:50:28;;;;;;;12.30;10.82;;;;;;;7.71;100.00;99910.03;10221844;28;20050;-71
2024/01/22 10:55:25;;;;;;;16.35;9.27;;;;;;;7.68;100.00;99909.84;10220037;28;20037;-74
2024/01/22 11:00:21;;;;;;;10.10;7.47;;;;;;;7.63;100.00;99902.63;10224169;28;21047;-75
2024/01/22 11:05:20;;;;;;;24.77;8.45;;;;;;;7.69;100.00;99895.13;10225751;28;20053;-75
2024/01/22 11:10:17;;;;;;;17.67;9.18;;;;;;;7.69;100.00;99901.38;10222176;28;20058;-75
2024/01/22 11:15:15;;;;;;;11.27;8.02;;;;;;;7.75;100.00;99888.41;10225967;28;20052;-74
2024/01/22 11:20:19;;;;;;;15.05;8.80;;;;;;;7.80;100.00;99891.00;10224019;28;20049;-74
2024/01/22 11:25:16;;;;;;;10.90;9.55;;;;;;;7.77;100.00;99919.66;10226069;28;20041;-74
2024/01/22 11:30:21;;;;;;;15.35;8.73;;;;;;;7.84;100.00;99899.31;10229737;28;20052;-73
2024/01/22 11:35:41;;;;;;;17.63;9.65;;;;;;;7.94;100.00;99904.44;10221004;28;20099;-74
2024/01/22 11:40:52;;;;;;;19.50;9.45;;;;;;;7.96;100.00;99916.63;10228866;28;20099;-73
2024/01/22 11:45:53;;;;;;;19.35;10.52;;;;;;;8.01;100.00;99923.81;10229249;28;20686;-73
2024/01/22 11:51:04;;;;;;;25.38;12.18;;;;;;;8.00;100.00;99920.28;10220206;28;20129;-73
2024/01/22 11:56:05;;;;;;;23.70;12.68;;;;;;;8.02;100.00;99919.97;10196209;28;20479;-73
2024/01/22 12:01:05;;;;;;;21.67;12.55;;;;;;;7.96;100.00;99926.69;10235559;28;20144;-73
2024/01/22 12:06:07;;;;;;;16.73;12.60;;;;;;;8.14;100.00;99944.63;10221613;28;20045;-73
2024/01/22 12:11:12;;;;;;;14.27;11.02;;;;;;;8.21;100.00;99950.41;10216457;28;20107;-73
2024/01/22 12:16:16;;;;;;;28.55;12.10;;;;;;;8.24;100.00;99965.31;10229178;28;20064;-74
2024/01/22 12:21:13;;;;;;;19.85;11.90;;;;;;;8.20;100.00;99986.94;10232274;28;20463;-73
2024/01/22 12:26:21;;;;;;;19.52;12.20;;;;;;;8.16;100.00;99999.56;10230220;28;20042;-74
2024/01/22 12:31:19;;;;;;;19.08;12.82;;;;;;;8.12;100.00;100022.31;10223686;28;20232;-74
2024/01/22 12:36:16;;;;;;;19.75;13.07;;;;;;;8.17;100.00;100031.16;10236272;28;20057;-72
2024/01/22 12:41:14;;;;;;;26.33;12.80;;;;;;;8.19;100.00;100045.25;10238706;28;20411;-76
2024/01/22 12:46:14;;;;;;;17.92;11.55;;;;;;;8.19;100.00;100056.16;10230906;28;20069;-75
2024/01/22 12:51:12;;;;;;;23.65;12.40;;;;;;;8.16;100.00;100067.66;10231471;28;20046;-75
2024/01/22 12:56:09;;;;;;;23.30;13.27;;;;;;;8.17;100.00;100091.06;10239105;28;20049;-75
2024/01/22 13:01:05;;;;;;;24.83;12.10;;;;;;;8.20;100.00;100095.84;10231028;28;20051;-75
2024/01/22 13:06:02;;;;;;;20.00;12.07;;;;;;;8.30;100.00;100110.28;10234582;28;20056;-75
2024/01/22 13:10:59;;;;;;;26.33;10.98;;;;;;;8.34;100.00;100127.63;10223814;28;20559;-75
2024/01/22 13:15:56;;;;;;;19.55;11.73;;;;;;;8.25;100.00;100133.03;10226048;28;20142;-75
2024/01/22 13:21:12;;;;;;;20.00;12.07;;;;;;;8.33;100.00;100148.63;10223860;28;20049;-74
2024/01/22 13:26:09;;;;;;;24.85;10.77;;;;;;;8.38;100.00;100164.00;10219005;28;20072;-73
2024/01/22 13:31:05;;;;;;;23.20;10.35;;;;;;;8.27;100.00;100159.97;10226858;28;20045;-75
2024/01/22 13:36:04;;;;;;;25.73;10.40;;;;;;;8.21;100.00;100168.28;10230185;28;20535;-75
2024/01/22 13:41:03;;;;;;;21.42;8.55;;;;;;;8.25;100.00;100168.44;10198719;28;21923;-74
2024/01/22 13:46:05;;;;;;;20.15;8.65;;;;;;;8.28;100.00;100194.25;10224659;28;20164;-75
2024/01/22 13:51:01;;;;;;;20.67;7.90;;;;;;;8.32;100.00;100187.06;10222067;28;20086;-76
2024/01/22 13:55:58;;;;;;;18.30;7.75;;;;;;;8.24;100.00;100196.81;10221352;28;20046;-74
2024/01/22 14:00:56;;;;;;;23.95;8.15;;;;;;;8.19;100.00;100203.19;10225233;28;20076;-73
2024/01/22 14:05:53;;;;;;;21.25;9.10;;;;;;;8.17;100.00;100208.16;10224978;28;20048;-74
2024/01/22 14:10:49;;;;;;;23.83;7.65;;;;;;;8.19;100.00;100219.53;10233012;28;20072;-75
2024/01/22 14:15:46;;;;;;;20.95;9.15;;;;;;;8.17;100.00;100219.03;10226659;28;20041;-75
2024/01/22 14:20:43;;;;;;;25.58;9.23;;;;;;;8.19;100.00;100246.78;10216318;28;20148;-75
2024/01/22 14:25:42;;;;;;;22.15;8.70;;;;;;;8.23;100.00;100231.38;10223123;28;20141;-76
2024/01/22 14:30:39;;;;;;;27.67;10.38;;;;;;;8.07;100.00;100246.53;10223495;28;20051;-74
2024/01/22 14:35:36;;;;;;;31.33;13.50;;;;;;;8.02;100.00;100243.94;10233332;28;20463;-74
2024/01/22 14:40:32;;;;;;;18.92;9.25;;;;;;;8.10;100.00;100259.53;10233404;28;20447;-75
2024/01/22 14:45:29;;;;;;;26.38;9.77;;;;;;;8.14;100.00;100259.69;10225547;28;20048;-74
2024/01/22 14:50:25;;;;;;;24.70;8.10;;;;;;;8.16;100.00;100265.63;10222844;28;20045;-75
2024/01/22 14:55:23;;;;;;;26.48;9.80;;;;;;;8.07;100.00;100279.19;10231034;28;20057;-77
2024/01/22 15:00:27;;;;;;;17.75;8.40;;;;;;;8.11;100.00;100277.47;10229206;28;20050;-75
2024/01/22 15:05:23;;;;;;;31.55;10.00;;;;;;;7.95;100.00;100289.88;10226065;28;20119;-75
2024/01/22 15:10:20;;;;;;;22.27;8.00;;;;;;;7.97;100.00;100298.53;10225716;28;20441;-76
2024/01/22 15:15:16;;;;;;;21.58;8.20;;;;;;;7.97;100.00;100317.59;10227401;28;20053;-76
2024/01/22 15:20:13;;;;;;;19.80;8.32;;;;;;;7.79;100.00;100311.22;10236063;28;20045;-75
2024/01/22 15:25:12;;;;;;;19.88;9.05;;;;;;;7.70;100.00;100319.28;10235072;28;20498;-76
2024/01/22 15:30:09;;;;;;;19.80;10.25;;;;;;;7.57;100.00;100336.50;10232085;28;20069;-76
2024/01/22 15:35:05;;;;;;;16.42;8.23;;;;;;;7.66;100.00;100359.13;10245924;28;20041;-74
2024/01/22 15:40:06;;;;;;;18.27;7.28;;;;;;;7.76;100.00;100342.56;10233734;28;20493;-74
2024/01/22 15:45:07;;;;;;;21.50;9.13;;;;;;;7.68;100.00;100359.66;10235300;28;20249;-74
2024/01/22 15:50:05;;;;;;;25.27;7.93;;;;;;;7.61;100.00;100367.41;10241549;28;20037;-74
2024/01/22 15:55:02;;;;;;;13.38;7.55;;;;;;;7.55;100.00;100365.91;10236070;28;20164;-75
2024/01/22 15:59:59;;;;;;;13.63;7.18;;;;;;;7.66;100.00;100380.91;10234920;28;20053;-74
2024/01/22 16:04:55;;;;;;;19.15;7.05;;;;;;;7.63;100.00;100375.25;10226596;28;20079;-74
2024/01/22 16:09:52;;;;;;;16.30;7.57;;;;;;;7.44;100.00;100372.69;10229471;28;20479;-76
2024/01/22 16:14:49;;;;;;;24.80;9.00;;;;;;;7.49;100.00;100380.72;10240902;28;20473;-76
2024/01/22 16:19:45;;;;;;;16.58;7.30;;;;;;;7.48;100.00;100379.13;10234134;28;20144;-80
2024/01/22 16:24:43;;;;;;;20.58;8.13;;;;;;;7.35;100.00;100387.00;10241233;28;20056;-78
2024/01/22 16:29:40;;;;;;;19.73;7.68;;;;;;;7.09;100.00;100415.81;10225777;28;20144;-74
2024/01/22 16:34:37;;;;;;;19.30;8.43;;;;;;;7.00;100.00;100412.19;10229313;28;20034;-74
2024/01/22 16:39:38;;;;;;;22.45;8.88;;;;;;;7.01;100.00;100435.53;10232091;28;20080;-75
2024/01/22 16:44:35;;;;;;;24.15;8.27;;;;;;;7.14;100.00;100440.19;10191321;28;20042;-74
2024/01/22 16:49:32;;;;;;;18.70;7.43;;;;;;;7.25;100.00;100433.44;10192741;28;20060;-74
2024/01/22 16:54:28;;;;;;;20.80;7.38;;;;;;;7.28;100.00;100441.00;10195405;28;20099;-74
2024/01/22 16:59:25;;;;;;;18.60;7.53;;;;;;;7.04;100.00;100451.25;10199704;28;20057;-77
2024/01/22 17:04:26;;;;;;;14.93;8.32;;;;;;;6.90;100.00;100486.56;10224767;28;20041;-76
2024/01/22 17:09:23;;;;;;;26.00;8.85;;;;;;;6.89;100.00;100474.91;10222134;28;20041;-74
2024/01/22 17:14:19;;;;;;;14.63;6.82;;;;;;;6.91;100.00;100497.13;10230932;28;20540;-74
2024/01/22 17:19:16;;;;;;;23.25;7.85;;;;;;;7.05;100.00;100485.47;10233379;28;20057;-77
2024/01/22 17:24:13;;;;;;;15.35;7.00;;;;;;;7.22;100.00;100501.22;10230194;28;20092;-76
2024/01/22 17:29:10;;;;;;;23.48;7.28;;;;;;;7.17;100.00;100504.81;10226186;28;20044;-75
2024/01/22 17:34:06;;;;;;;14.45;6.65;;;;;;;7.10;100.00;100509.84;10232083;28;20045;-77
2024/01/22 17:39:05;;;;;;;14.77;6.50;;;;;;;7.12;100.00;100523.97;10205395;28;20092;-73
2024/01/22 17:44:01;;;;;;;18.15;7.43;;;;;;;7.08;100.00;100512.09;10203510;28;20058;-72
2024/01/22 17:48:58;;;;;;;17.73;7.28;;;;;;;6.94;100.00;100512.84;10201681;28;20053;-73
2024/01/22 17:53:55;;;;;;;23.85;8.02;;;;;;;7.00;100.00;100539.94;10186102;28;20049;-74
2024/01/22 17:58:52;;;;;;;18.08;7.93;;;;;;;6.67;100.00;100551.63;10206309;28;20049;-74
2024/01/22 18:03:50;;;;;;;27.80;9.13;;;;;;;6.39;100.00;100561.53;10190020;28;20045;-73
2024/01/22 18:08:48;;;;;;;17.50;10.05;;;;;;;6.13;100.00;100568.41;10198754;28;20045;-74
2024/01/22 18:13:45;;;;;;;23.13;10.80;;;;;;;6.25;100.00;100576.94;10191703;28;20076;-73
2024/01/22 18:18:41;;;;;;;16.70;9.13;;;;;;;6.25;100.00;100575.03;10218674;28;20046;-74
2024/01/22 18:23:38;;;;;;;22.23;11.27;;;;;;;6.21;100.00;100581.34;10222529;28;20077;-73
2024/01/22 18:28:35;;;;;;;22.35;12.43;;;;;;;6.18;100.00;100587.38;10230395;28;20512;-72
2024/01/22 18:33:32;;;;;;;23.63;11.30;;;;;;;6.25;100.00;100593.25;10211707;28;20050;-76
2024/01/22 18:38:28;;;;;;;22.42;10.38;;;;;;;6.18;100.00;100582.72;10192269;28;20045;-74
2024/01/22 18:43:25;;;;;;;24.55;11.18;;;;;;;6.18;100.00;100599.03;10192711;28;20058;-73
2024/01/22 18:48:22;;;;;;;28.70;10.38;;;;;;;6.31;100.00;100597.47;10218887;28;20128;-73
2024/01/22 18:53:19;;;;;;;19.27;10.60;;;;;;;6.34;100.00;100607.78;10226303;28;20099;-75
2024/01/22 18:58:15;;;;;;;25.08;9.98;;;;;;;6.46;100.00;100605.44;10222472;28;20135;-78
2024/01/22 19:03:12;;;;;;;23.20;10.45;;;;;;;6.61;100.00;100622.63;10220911;28;20056;-76
2024/01/22 19:08:08;;;;;;;27.23;10.23;;;;;;;6.57;100.00;100618.88;10220893;28;20052;-75
2024/01/22 19:13:05;;;;;;;23.33;8.75;;;;;;;6.69;100.00;100647.22;10225619;28;20046;-79
2024/01/22 19:18:01;;;;;;;16.75;9.05;;;;;;;6.72;100.00;100641.19;10221489;28;20065;-74
2024/01/22 19:22:58;;;;;;;24.63;9.65;;;;;;;6.69;100.00;100638.28;10228065;28;20563;-76
2024/01/22 19:27:54;;;;;;;26.90;9.70;;;;;;;6.69;100.00;100630.91;10208005;28;20754;-79
2024/01/22 19:32:51;;;;;;;25.15;9.20;;;;;;;6.65;100.00;100639.94;10207832;28;20084;-75
2024/01/22 19:37:48;;;;;;;27.10;9.88;;;;;;;6.64;100.00;100654.66;10223637;28;20049;-76
2024/01/22 19:42:44;;;;;;;27.92;10.73;;;;;;;6.69;100.00;100662.72;10228081;28;20081;-75
2024/01/22 19:47:41;;;;;;;24.50;8.98;;;;;;;6.76;100.00;100674.03;10228908;28;20076;-73
2024/01/22 19:52:37;;;;;;;22.60;8.63;;;;;;;6.84;100.00;100670.63;10227871;28;20049;-75
2024/01/22 19:57:34;;;;;;;16.85;7.88;;;;;;;6.85;100.00;100672.28;10222732;28;20045;-75
2024/01/22 20:02:31;;;;;;;25.48;8.98;;;;;;;6.84;100.00;100670.63;10227870;28;20048;-72
2024/01/22 20:07:27;;;;;;;25.65;8.40;;;;;;;6.76;100.00;100670.50;10231352;28;20049;-78
2024/01/22 20:12:24;;;;;;;22.02;8.25;;;;;;;6.74;100.00;100692.53;10233952;28;20053;-77
2024/01/22 20:17:20;;;;;;;18.48;9.05;;;;;;;6.75;100.00;100702.28;10233133;28;20728;-75
2024/01/22 20:22:17;;;;;;;24.88;7.93;;;;;;;6.66;100.00;100712.19;10233926;28;20623;-76
2024/01/22 20:27:13;;;;;;;31.92;8.45;;;;;;;6.70;100.00;100702.38;10231464;28;20515;-75
2024/01/22 20:32:10;;;;;;;31.42;7.97;;;;;;;6.66;100.00;100712.19;10228228;28;20037;-78
2024/01/22 20:37:07;;;;;;;25.08;8.30;;;;;;;6.67;100.00;100708.41;10222774;28;20037;-77
2024/01/22 20:42:04;;;;;;;27.33;7.57;;;;;;;6.66;100.00;100714.91;10229998;28;20096;-77
2024/01/22 20:47:01;;;;;;;24.40;7.93;;;;;;;6.64;100.00;100720.66;10232902;28;20051;-75
2024/01/22 20:51:57;;;;;;;23.02;7.95;;;;;;;6.70;100.00;100738.50;10236569;28;20107;-75
2024/01/22 20:56:54;;;;;;;17.55;6.80;;;;;;;6.68;100.00;100746.16;10218568;28;20042;-75
2024/01/22 21:01:51;;;;;;;22.08;7.05;;;;;;;6.68;100.00;100732.56;10199394;28;20045;-74
2024/01/22 21:06:47;;;;;;;20.77;7.13;;;;;;;6.74;100.00;100736.81;10204759;28;20041;-75
2024/01/22 21:11:45;;;;;;;17.85;6.38;;;;;;;6.68;100.00;100738.00;10231369;28;20050;-74
2024/01/22 21:16:42;;;;;;;15.43;7.07;;;;;;;6.70;100.00;100740.41;10229518;28;20041;-75
2024/01/22 21:21:41;;;;;;;21.92;6.20;;;;;;;6.76;100.00;100754.75;10232847;28;20041;-74
2024/01/22 21:26:37;;;;;;;20.95;6.65;;;;;;;6.71;100.00;100747.47;10233750;28;20041;-75
2024/01/22 21:31:35;;;;;;;26.58;6.97;;;;;;;6.76;100.00;100750.13;10222125;28;20472;-73
2024/01/22 21:36:31;;;;;;;16.27;6.22;;;;;;;6.69;100.00;100750.47;10227515;28;20056;-73
2024/01/22 21:41:28;;;;;;;18.08;5.78;;;;;;;6.76;100.00;100761.00;10227702;28;20068;-73
2024/01/22 21:46:24;;;;;;;20.80;6.78;;;;;;;6.75;100.00;100764.78;10224633;28;20052;-75
2024/01/22 21:51:21;;;;;;;26.88;6.47;;;;;;;6.71;100.00;100753.72;10230227;28;20107;-73
2024/01/22 21:56:18;;;;;;;19.42;6.72;;;;;;;6.79;100.00;100752.25;10229784;28;20195;-75
2024/01/22 22:01:15;;;;;;;19.38;6.03;;;;;;;6.75;100.00;100791.97;10229968;28;20528;-73
2024/01/22 22:06:12;;;;;;;18.35;5.78;;;;;;;6.77;100.00;100784.34;10230098;28;20049;-73
2024/01/22 22:11:09;;;;;;;17.85;5.57;;;;;;;6.77;100.00;100768.03;10237654;28;20037;-73
2024/01/22 22:16:06;;;;;;;16.45;6.18;;;;;;;6.74;100.00;100768.63;10229234;28;20045;-72
2024/01/22 22:21:05;;;;;;;16.77;5.72;;;;;;;6.72;100.00;100778.97;10223415;28;20103;-72
2024/01/22 22:26:02;;;;;;;18.08;5.93;;;;;;;6.72;100.00;100787.13;10228811;28;20648;-73
2024/01/22 22:30:59;;;;;;;15.18;5.68;;;;;;;6.70;100.00;100790.13;10226587;28;20099;-73
2024/01/22 22:35:55;;;;;;;15.93;5.25;;;;;;;6.61;100.00;100799.19;10226791;28;20052;-70